sensor_id;sensor_type;location;lat;lon;timestamp;pressure;altitude;pressure_sealevel;temperature;humidity
28008;BME280;15333;50.010;20.020;2023-03-13T00:00:27;98351.06;;;4.73;60.42
28008;BME280;15333;50.010;20.020;2023-03-13T00:03:47;98343.97;;;4.74;60.95
28008;BME280;15333;50.010;20.020;2023-03-13T00:06:48;98344.63;;;4.78;61.28
28008;BME280;15333;50.010;20.020;2023-03-13T00:09:49;98348.38;;;4.89;60.92
28008;BME280;15333;50.010;20.020;2023-03-13T00:12:50;98350.91;;;4.91;61.83
28008;BME280;15333;50.010;20.020;2023-03-13T00:16:01;98353.19;;;4.83;62.03
28008;BME280;15333;50.010;20.020;2023-03-13T00:19:03;98357.25;;;4.88;62.23
28008;BME280;15333;50.010;20.020;2023-03-13T00:22:05;98360.09;;;4.85;63.29
28008;BME280;15333;50.010;20.020;2023-03-13T00:25:06;98365.41;;;4.99;62.49
28008;BME280;15333;50.010;20.020;2023-03-13T00:28:07;98369.00;;;4.98;62.92
28008;BME280;15333;50.010;20.020;2023-03-13T00:31:19;98364.31;;;5.03;63.38
28008;BME280;15333;50.010;20.020;2023-03-13T00:34:23;98342.72;;;5.09;63.93
28008;BME280;15333;50.010;20.020;2023-03-13T00:37:27;98342.50;;;5.12;64.72
28008;BME280;15333;50.010;20.020;2023-03-13T00:40:29;98345.38;;;5.09;66.57
28008;BME280;15333;50.010;20.020;2023-03-13T00:43:31;98335.63;;;5.10;66.91
28008;BME280;15333;50.010;20.020;2023-03-13T00:46:32;98317.50;;;5.02;68.27
28008;BME280;15333;50.010;20.020;2023-03-13T00:49:33;98315.97;;;4.98;68.00
28008;BME280;15333;50.010;20.020;2023-03-13T00:52:33;98317.44;;;5.04;67.37
28008;BME280;15333;50.010;20.020;2023-03-13T00:55:34;98319.56;;;4.97;67.73
28008;BME280;15333;50.010;20.020;2023-03-13T00:58:37;98314.84;;;5.02;67.94
28008;BME280;15333;50.010;20.020;2023-03-13T01:01:38;98308.47;;;4.91;69.67
28008;BME280;15333;50.010;20.020;2023-03-13T01:04:39;98314.25;;;4.97;69.77
28008;BME280;15333;50.010;20.020;2023-03-13T01:07:41;98305.19;;;5.01;69.60
28008;BME280;15333;50.010;20.020;2023-03-13T01:10:41;98301.97;;;4.96;71.64
28008;BME280;15333;50.010;20.020;2023-03-13T01:13:43;98302.63;;;5.00;71.81
28008;BME280;15333;50.010;20.020;2023-03-13T01:16:45;98299.22;;;4.98;72.43
28008;BME280;15333;50.010;20.020;2023-03-13T01:19:46;98290.13;;;5.02;72.59
28008;BME280;15333;50.010;20.020;2023-03-13T01:22:47;98283.03;;;4.88;74.04
28008;BME280;15333;50.010;20.020;2023-03-13T01:25:48;98279.22;;;4.92;73.30
28008;BME280;15333;50.010;20.020;2023-03-13T01:28:49;98270.34;;;4.93;73.14
28008;BME280;15333;50.010;20.020;2023-03-13T01:31:51;98273.75;;;4.95;74.04
28008;BME280;15333;50.010;20.020;2023-03-13T01:34:52;98274.78;;;4.93;74.36
28008;BME280;15333;50.010;20.020;2023-03-13T01:37:53;98279.22;;;4.92;74.18
28008;BME280;15333;50.010;20.020;2023-03-13T01:40:54;98271.84;;;4.97;73.88
28008;BME280;15333;50.010;20.020;2023-03-13T01:43:57;98281.50;;;4.98;73.83
28008;BME280;15333;50.010;20.020;2023-03-13T01:47:02;98289.28;;;5.01;73.79
28008;BME280;15333;50.010;20.020;2023-03-13T01:50:09;98285.69;;;5.02;74.27
28008;BME280;15333;50.010;20.020;2023-03-13T01:53:27;98274.88;;;5.05;73.93
28008;BME280;15333;50.010;20.020;2023-03-13T01:56:37;98276.41;;;5.09;74.04
28008;BME280;15333;50.010;20.020;2023-03-13T01:59:43;98273.16;;;5.04;74.76
28008;BME280;15333;50.010;20.020;2023-03-13T02:02:50;98287.56;;;5.15;74.18
28008;BME280;15333;50.010;20.020;2023-03-13T02:05:51;98293.06;;;5.11;73.93
28008;BME280;15333;50.010;20.020;2023-03-13T02:08:56;98303.88;;;5.23;73.84
28008;BME280;15333;50.010;20.020;2023-03-13T02:12:12;98307.09;;;5.28;73.88
28008;BME280;15333;50.010;20.020;2023-03-13T02:15:17;98298.75;;;5.34;73.39
28008;BME280;15333;50.010;20.020;2023-03-13T02:18:19;98296.09;;;5.34;73.64
28008;BME280;15333;50.010;20.020;2023-03-13T02:21:41;98304.63;;;5.39;73.74
28008;BME280;15333;50.010;20.020;2023-03-13T02:24:51;98309.53;;;5.59;73.01
28008;BME280;15333;50.010;20.020;2023-03-13T02:28:06;98311.66;;;5.54;73.58
28008;BME280;15333;50.010;20.020;2023-03-13T02:31:10;98317.13;;;5.65;72.78
28008;BME280;15333;50.010;20.020;2023-03-13T02:34:14;98320.53;;;5.67;73.01
28008;BME280;15333;50.010;20.020;2023-03-13T02:37:18;98327.16;;;5.74;72.97
28008;BME280;15333;50.010;20.020;2023-03-13T02:40:24;98329.81;;;5.74;72.89
28008;BME280;15333;50.010;20.020;2023-03-13T02:43:35;98328.97;;;5.74;73.42
28008;BME280;15333;50.010;20.020;2023-03-13T02:46:49;98336.25;;;5.70;73.70
28008;BME280;15333;50.010;20.020;2023-03-13T02:49:54;98338.25;;;5.81;73.62
28008;BME280;15333;50.010;20.020;2023-03-13T02:53:02;98345.75;;;5.88;73.43
28008;BME280;15333;50.010;20.020;2023-03-13T02:56:04;98353.09;;;5.83;74.09
28008;BME280;15333;50.010;20.020;2023-03-13T02:59:06;98354.44;;;5.90;73.58
28008;BME280;15333;50.010;20.020;2023-03-13T03:02:08;98358.09;;;5.89;74.01
28008;BME280;15333;50.010;20.020;2023-03-13T03:05:12;98355.97;;;5.95;74.00
28008;BME280;15333;50.010;20.020;2023-03-13T03:08:13;98356.34;;;6.03;73.94
28008;BME280;15333;50.010;20.020;2023-03-13T03:11:14;98352.16;;;5.99;74.13
28008;BME280;15333;50.010;20.020;2023-03-13T03:14:17;98357.88;;;5.93;75.16
28008;BME280;15333;50.010;20.020;2023-03-13T03:17:21;98356.63;;;5.98;75.05
28008;BME280;15333;50.010;20.020;2023-03-13T03:20:21;98351.44;;;5.97;75.01
28008;BME280;15333;50.010;20.020;2023-03-13T03:23:23;98364.31;;;6.03;75.18
28008;BME280;15333;50.010;20.020;2023-03-13T03:26:23;98350.09;;;6.04;74.93
28008;BME280;15333;50.010;20.020;2023-03-13T03:29:25;98361.28;;;5.95;75.36
28008;BME280;15333;50.010;20.020;2023-03-13T03:32:28;98360.72;;;6.04;74.80
28008;BME280;15333;50.010;20.020;2023-03-13T03:35:30;98351.97;;;6.02;75.00
28008;BME280;15333;50.010;20.020;2023-03-13T03:38:31;98350.19;;;6.02;75.30
28008;BME280;15333;50.010;20.020;2023-03-13T03:41:33;98354.44;;;6.05;75.09
28008;BME280;15333;50.010;20.020;2023-03-13T03:44:35;98358.44;;;5.98;75.67
28008;BME280;15333;50.010;20.020;2023-03-13T03:47:37;98353.47;;;6.06;75.64
28008;BME280;15333;50.010;20.020;2023-03-13T03:50:40;98350.28;;;6.01;75.57
28008;BME280;15333;50.010;20.020;2023-03-13T03:53:41;98355.41;;;6.04;75.80
28008;BME280;15333;50.010;20.020;2023-03-13T03:56:42;98361.81;;;6.14;75.50
28008;BME280;15333;50.010;20.020;2023-03-13T03:59:45;98357.53;;;6.11;76.06
28008;BME280;15333;50.010;20.020;2023-03-13T04:02:46;98355.00;;;6.10;76.70
28008;BME280;15333;50.010;20.020;2023-03-13T04:05:47;98349.13;;;6.05;76.70
28008;BME280;15333;50.010;20.020;2023-03-13T04:08:48;98347.97;;;6.09;77.05
28008;BME280;15333;50.010;20.020;2023-03-13T04:11:52;98347.75;;;6.12;77.36
28008;BME280;15333;50.010;20.020;2023-03-13T04:14:54;98363.53;;;6.15;77.65
28008;BME280;15333;50.010;20.020;2023-03-13T04:17:56;98351.41;;;6.11;78.16
28008;BME280;15333;50.010;20.020;2023-03-13T04:21:01;98354.19;;;6.22;77.51
28008;BME280;15333;50.010;20.020;2023-03-13T04:24:05;98367.50;;;6.22;77.92
28008;BME280;15333;50.010;20.020;2023-03-13T04:27:07;98361.22;;;6.23;78.00
28008;BME280;15333;50.010;20.020;2023-03-13T04:30:10;98359.69;;;6.19;78.30
28008;BME280;15333;50.010;20.020;2023-03-13T04:33:13;98364.84;;;6.22;78.62
28008;BME280;15333;50.010;20.020;2023-03-13T04:36:20;98362.47;;;6.17;78.42
28008;BME280;15333;50.010;20.020;2023-03-13T04:39:21;98357.72;;;6.22;78.46
28008;BME280;15333;50.010;20.020;2023-03-13T04:42:46;98353.06;;;6.12;78.98
28008;BME280;15333;50.010;20.020;2023-03-13T04:46:06;98352.91;;;6.15;79.18
28008;BME280;15333;50.010;20.020;2023-03-13T04:49:17;98359.91;;;6.16;79.57
28008;BME280;15333;50.010;20.020;2023-03-13T04:52:43;98352.22;;;6.11;80.20
28008;BME280;15333;50.010;20.020;2023-03-13T04:55:52;98355.00;;;6.10;80.02
28008;BME280;15333;50.010;20.020;2023-03-13T04:59:26;98355.00;;;6.10;80.08
28008;BME280;15333;50.010;20.020;2023-03-13T05:02:45;98354.59;;;6.16;80.09
28008;BME280;15333;50.010;20.020;2023-03-13T05:06:12;98358.75;;;6.20;80.09
28008;BME280;15333;50.010;20.020;2023-03-13T05:09:13;98354.84;;;6.25;79.97
28008;BME280;15333;50.010;20.020;2023-03-13T05:12:46;98354.97;;;6.24;80.10
28008;BME280;15333;50.010;20.020;2023-03-13T05:15:55;98342.97;;;6.31;79.99
28008;BME280;15333;50.010;20.020;2023-03-13T05:19:27;98351.50;;;6.36;79.56
28008;BME280;15333;50.010;20.020;2023-03-13T05:22:47;98347.63;;;6.27;80.31
28008;BME280;15333;50.010;20.020;2023-03-13T05:26:00;98345.78;;;6.42;80.02
28008;BME280;15333;50.010;20.020;2023-03-13T05:29:04;98346.53;;;6.44;80.12
28008;BME280;15333;50.010;20.020;2023-03-13T05:32:13;98339.84;;;6.51;79.59
28008;BME280;15333;50.010;20.020;2023-03-13T05:35:53;98334.13;;;6.57;79.79
28008;BME280;15333;50.010;20.020;2023-03-13T05:39:17;98327.97;;;6.57;79.90
28008;BME280;15333;50.010;20.020;2023-03-13T05:42:30;98327.13;;;6.69;79.50
28008;BME280;15333;50.010;20.020;2023-03-13T05:45:50;98323.94;;;6.64;79.59
28008;BME280;15333;50.010;20.020;2023-03-13T05:49:10;98329.69;;;6.71;79.39
28008;BME280;15333;50.010;20.020;2023-03-13T05:52:37;98327.78;;;6.73;79.01
28008;BME280;15333;50.010;20.020;2023-03-13T05:55:46;98325.31;;;6.69;79.38
28008;BME280;15333;50.010;20.020;2023-03-13T05:59:05;98320.97;;;6.68;79.49
28008;BME280;15333;50.010;20.020;2023-03-13T06:02:33;98320.16;;;6.54;80.08
28008;BME280;15333;50.010;20.020;2023-03-13T06:05:34;98317.41;;;6.55;80.07
28008;BME280;15333;50.010;20.020;2023-03-13T06:08:39;98312.97;;;6.56;80.40
28008;BME280;15333;50.010;20.020;2023-03-13T06:11:40;98316.47;;;6.56;80.03
28008;BME280;15333;50.010;20.020;2023-03-13T06:14:42;98319.88;;;6.58;79.60
28008;BME280;15333;50.010;20.020;2023-03-13T06:18:01;98313.19;;;6.65;79.11
28008;BME280;15333;50.010;20.020;2023-03-13T06:21:02;98311.50;;;6.64;79.43
28008;BME280;15333;50.010;20.020;2023-03-13T06:24:03;98316.63;;;6.67;79.33
28008;BME280;15333;50.010;20.020;2023-03-13T06:27:06;98317.16;;;6.73;78.98
28008;BME280;15333;50.010;20.020;2023-03-13T06:30:08;98322.47;;;6.73;79.10
28008;BME280;15333;50.010;20.020;2023-03-13T06:33:10;98320.16;;;6.81;78.33
28008;BME280;15333;50.010;20.020;2023-03-13T06:36:11;98320.34;;;6.78;78.07
28008;BME280;15333;50.010;20.020;2023-03-13T06:39:12;98313.97;;;6.93;77.86
28008;BME280;15333;50.010;20.020;2023-03-13T06:42:13;98306.63;;;6.96;77.28
28008;BME280;15333;50.010;20.020;2023-03-13T06:45:14;98305.91;;;7.07;77.36
28008;BME280;15333;50.010;20.020;2023-03-13T06:48:15;98305.72;;;7.10;77.07
28008;BME280;15333;50.010;20.020;2023-03-13T06:51:20;98303.34;;;7.18;76.50
28008;BME280;15333;50.010;20.020;2023-03-13T06:54:21;98305.03;;;7.32;75.89
28008;BME280;15333;50.010;20.020;2023-03-13T06:57:22;98303.00;;;7.48;75.21
28008;BME280;15333;50.010;20.020;2023-03-13T07:00:23;98301.84;;;7.52;75.03
28008;BME280;15333;50.010;20.020;2023-03-13T07:03:24;98305.63;;;7.61;74.71
28008;BME280;15333;50.010;20.020;2023-03-13T07:06:25;98301.38;;;7.71;74.90
28008;BME280;15333;50.010;20.020;2023-03-13T07:09:26;98296.56;;;7.76;74.66
28008;BME280;15333;50.010;20.020;2023-03-13T07:12:27;98297.94;;;7.69;74.08
28008;BME280;15333;50.010;20.020;2023-03-13T07:15:28;98295.84;;;7.74;74.11
28008;BME280;15333;50.010;20.020;2023-03-13T07:18:30;98285.38;;;7.71;74.43
28008;BME280;15333;50.010;20.020;2023-03-13T07:21:31;98289.38;;;7.89;74.19
28008;BME280;15333;50.010;20.020;2023-03-13T07:24:31;98290.59;;;8.09;73.54
28008;BME280;15333;50.010;20.020;2023-03-13T07:27:32;98290.28;;;8.24;73.35
28008;BME280;15333;50.010;20.020;2023-03-13T07:30:33;98286.66;;;8.25;72.77
28008;BME280;15333;50.010;20.020;2023-03-13T07:33:34;98288.16;;;8.53;72.42
28008;BME280;15333;50.010;20.020;2023-03-13T07:36:35;98291.00;;;8.63;72.16
28008;BME280;15333;50.010;20.020;2023-03-13T07:39:36;98288.59;;;8.71;71.48
28008;BME280;15333;50.010;20.020;2023-03-13T07:42:40;98295.84;;;8.69;71.65
28008;BME280;15333;50.010;20.020;2023-03-13T07:45:59;98278.69;;;8.84;71.47
28008;BME280;15333;50.010;20.020;2023-03-13T07:49:00;98278.63;;;9.19;70.24
28008;BME280;15333;50.010;20.020;2023-03-13T07:52:01;98270.97;;;9.26;69.96
28008;BME280;15333;50.010;20.020;2023-03-13T07:55:02;98267.13;;;9.30;69.71
28008;BME280;15333;50.010;20.020;2023-03-13T07:58:03;98268.09;;;9.51;69.01
28008;BME280;15333;50.010;20.020;2023-03-13T08:01:12;98259.66;;;9.67;68.88
28008;BME280;15333;50.010;20.020;2023-03-13T08:04:14;98251.03;;;9.86;67.76
28008;BME280;15333;50.010;20.020;2023-03-13T08:07:15;98253.22;;;9.80;67.83
28008;BME280;15333;50.010;20.020;2023-03-13T08:10:16;98258.28;;;9.95;68.12
28008;BME280;15333;50.010;20.020;2023-03-13T08:13:17;98257.53;;;10.15;67.65
28008;BME280;15333;50.010;20.020;2023-03-13T08:16:21;98255.78;;;10.36;66.68
28008;BME280;15333;50.010;20.020;2023-03-13T08:19:22;98249.63;;;10.45;66.34
28008;BME280;15333;50.010;20.020;2023-03-13T08:22:23;98251.53;;;10.66;65.29
28008;BME280;15333;50.010;20.020;2023-03-13T08:25:24;98240.53;;;10.69;65.60
28008;BME280;15333;50.010;20.020;2023-03-13T08:28:25;98241.63;;;10.66;65.03
28008;BME280;15333;50.010;20.020;2023-03-13T08:31:31;98237.31;;;10.95;64.52
28008;BME280;15333;50.010;20.020;2023-03-13T08:34:32;98231.91;;;11.07;63.86
28008;BME280;15333;50.010;20.020;2023-03-13T08:37:34;98226.69;;;11.35;63.25
28008;BME280;15333;50.010;20.020;2023-03-13T08:40:35;98227.66;;;11.34;62.94
28008;BME280;15333;50.010;20.020;2023-03-13T08:43:36;98214.78;;;11.59;63.08
28008;BME280;15333;50.010;20.020;2023-03-13T08:46:37;98217.44;;;11.89;61.53
28008;BME280;15333;50.010;20.020;2023-03-13T08:49:38;98211.81;;;11.92;61.17
28008;BME280;15333;50.010;20.020;2023-03-13T08:52:40;98204.16;;;11.78;60.75
28008;BME280;15333;50.010;20.020;2023-03-13T08:55:43;98199.09;;;11.94;59.74
28008;BME280;15333;50.010;20.020;2023-03-13T08:58:48;98210.41;;;12.07;60.23
28008;BME280;15333;50.010;20.020;2023-03-13T09:01:50;98196.56;;;12.31;59.41
28008;BME280;15333;50.010;20.020;2023-03-13T09:04:51;98194.88;;;12.40;58.25
28008;BME280;15333;50.010;20.020;2023-03-13T09:07:52;98186.69;;;12.41;58.79
28008;BME280;15333;50.010;20.020;2023-03-13T09:10:58;98189.66;;;12.09;59.29
28008;BME280;15333;50.010;20.020;2023-03-13T09:13:59;98179.38;;;12.14;60.17
28008;BME280;15333;50.010;20.020;2023-03-13T09:17:00;98182.44;;;12.39;57.66
28008;BME280;15333;50.010;20.020;2023-03-13T09:20:01;98166.63;;;12.16;57.19
28008;BME280;15333;50.010;20.020;2023-03-13T09:23:02;98181.91;;;12.26;57.25
28008;BME280;15333;50.010;20.020;2023-03-13T09:26:03;98173.16;;;12.43;56.85
28008;BME280;15333;50.010;20.020;2023-03-13T09:29:04;98178.38;;;12.35;57.35
28008;BME280;15333;50.010;20.020;2023-03-13T09:32:05;98169.63;;;12.13;57.43
28008;BME280;15333;50.010;20.020;2023-03-13T09:35:06;98164.50;;;12.30;57.91
28008;BME280;15333;50.010;20.020;2023-03-13T09:38:07;98172.69;;;12.38;56.87
28008;BME280;15333;50.010;20.020;2023-03-13T09:41:20;98172.56;;;12.49;56.74
28008;BME280;15333;50.010;20.020;2023-03-13T09:44:28;98170.47;;;12.43;56.47
28008;BME280;15333;50.010;20.020;2023-03-13T09:47:57;98160.66;;;12.71;56.90
28008;BME280;15333;50.010;20.020;2023-03-13T09:51:23;98152.75;;;12.69;55.90
28008;BME280;15333;50.010;20.020;2023-03-13T09:57:55;98154.56;;;12.78;55.97
28008;BME280;15333;50.010;20.020;2023-03-13T10:01:00;98150.47;;;12.65;55.59
28008;BME280;15333;50.010;20.020;2023-03-13T10:07:18;98146.78;;;12.75;55.88
28008;BME280;15333;50.010;20.020;2023-03-13T10:10:38;98146.22;;;12.81;55.41
28008;BME280;15333;50.010;20.020;2023-03-13T10:13:48;98128.97;;;12.84;55.16
28008;BME280;15333;50.010;20.020;2023-03-13T10:20:23;98123.00;;;13.00;55.00
28008;BME280;15333;50.010;20.020;2023-03-13T10:23:26;98132.53;;;13.12;53.92
28008;BME280;15333;50.010;20.020;2023-03-13T10:26:35;98136.97;;;13.13;53.31
28008;BME280;15333;50.010;20.020;2023-03-13T10:29:38;98118.53;;;13.18;54.13
28008;BME280;15333;50.010;20.020;2023-03-13T10:32:41;98109.38;;;13.38;53.23
28008;BME280;15333;50.010;20.020;2023-03-13T10:36:19;98110.38;;;13.37;52.12
28008;BME280;15333;50.010;20.020;2023-03-13T10:39:28;98097.97;;;13.71;51.64
28008;BME280;15333;50.010;20.020;2023-03-13T10:42:31;98101.97;;;13.67;50.20
28008;BME280;15333;50.010;20.020;2023-03-13T10:45:41;98081.56;;;13.75;50.55
28008;BME280;15333;50.010;20.020;2023-03-13T10:48:43;98082.22;;;13.94;49.58
28008;BME280;15333;50.010;20.020;2023-03-13T10:51:54;98065.63;;;14.17;49.01
28008;BME280;15333;50.010;20.020;2023-03-13T10:55:04;98073.78;;;14.50;49.50
28008;BME280;15333;50.010;20.020;2023-03-13T10:59:01;98062.09;;;14.60;48.07
28008;BME280;15333;50.010;20.020;2023-03-13T11:01:40;98064.72;;;14.52;47.71
28008;BME280;15333;50.010;20.020;2023-03-13T11:04:42;98062.97;;;14.68;47.48
28008;BME280;15333;50.010;20.020;2023-03-13T11:07:43;98049.53;;;14.68;46.25
28008;BME280;15333;50.010;20.020;2023-03-13T11:10:53;98052.66;;;14.64;45.10
28008;BME280;15333;50.010;20.020;2023-03-13T11:14:13;98050.44;;;14.85;45.68
28008;BME280;15333;50.010;20.020;2023-03-13T11:17:28;98058.50;;;14.77;45.36
28008;BME280;15333;50.010;20.020;2023-03-13T11:20:33;98047.81;;;15.01;45.56
28008;BME280;15333;50.010;20.020;2023-03-13T11:23:42;98055.81;;;14.85;43.91
28008;BME280;15333;50.010;20.020;2023-03-13T11:26:58;98039.38;;;14.96;43.03
28008;BME280;15333;50.010;20.020;2023-03-13T11:30:33;98036.91;;;15.11;43.99
28008;BME280;15333;50.010;20.020;2023-03-13T11:36:59;98029.91;;;14.84;43.26
28008;BME280;15333;50.010;20.020;2023-03-13T11:47:02;98023.22;;;14.62;42.85
28008;BME280;15333;50.010;20.020;2023-03-13T11:50:12;98004.53;;;14.61;42.90
28008;BME280;15333;50.010;20.020;2023-03-13T11:56:31;97999.53;;;14.74;42.23
28008;BME280;15333;50.010;20.020;2023-03-13T12:02:55;97996.41;;;14.53;42.92
28008;BME280;15333;50.010;20.020;2023-03-13T12:05:58;97983.63;;;14.55;42.25
28008;BME280;15333;50.010;20.020;2023-03-13T12:16:05;97974.72;;;14.96;41.95
28008;BME280;15333;50.010;20.020;2023-03-13T12:19:20;97970.63;;;14.92;43.26
28008;BME280;15333;50.010;20.020;2023-03-13T12:22:31;97962.28;;;15.03;43.28
28008;BME280;15333;50.010;20.020;2023-03-13T12:25:39;97965.91;;;14.86;43.71
28008;BME280;15333;50.010;20.020;2023-03-13T12:29:07;97957.66;;;14.45;43.76
28008;BME280;15333;50.010;20.020;2023-03-13T12:32:21;97941.81;;;14.42;44.18
28008;BME280;15333;50.010;20.020;2023-03-13T12:35:29;97932.94;;;14.24;42.98
28008;BME280;15333;50.010;20.020;2023-03-13T12:45:23;97919.00;;;14.55;41.70
28008;BME280;15333;50.010;20.020;2023-03-13T13:01:03;97904.13;;;14.84;41.12
28008;BME280;15333;50.010;20.020;2023-03-13T13:04:17;97885.09;;;14.86;40.68
28008;BME280;15333;50.010;20.020;2023-03-13T13:07:26;97880.34;;;14.72;40.40
28008;BME280;15333;50.010;20.020;2023-03-13T13:10:28;97885.09;;;14.86;40.29
28008;BME280;15333;50.010;20.020;2023-03-13T13:13:29;97889.84;;;15.08;40.70
28008;BME280;15333;50.010;20.020;2023-03-13T13:16:32;97890.88;;;15.15;40.03
28008;BME280;15333;50.010;20.020;2023-03-13T13:25:41;97895.84;;;14.70;40.18
28008;BME280;15333;50.010;20.020;2023-03-13T13:28:41;97883.38;;;14.69;41.21
28008;BME280;15333;50.010;20.020;2023-03-13T13:35:03;97883.84;;;14.64;40.90
28008;BME280;15333;50.010;20.020;2023-03-13T13:41:23;97889.53;;;14.53;41.53
28008;BME280;15333;50.010;20.020;2023-03-13T13:44:27;97898.50;;;14.36;42.83
28008;BME280;15333;50.010;20.020;2023-03-13T13:47:30;97896.13;;;14.25;43.33
28008;BME280;15333;50.010;20.020;2023-03-13T13:50:31;97896.31;;;14.31;44.05
28008;BME280;15333;50.010;20.020;2023-03-13T13:56:54;97898.06;;;14.06;45.12
28008;BME280;15333;50.010;20.020;2023-03-13T14:03:00;97894.34;;;13.82;46.21
28008;BME280;15333;50.010;20.020;2023-03-13T14:06:15;97898.56;;;13.58;47.61
28008;BME280;15333;50.010;20.020;2023-03-13T14:12:45;97886.94;;;13.14;51.04
28008;BME280;15333;50.010;20.020;2023-03-13T14:15:51;97874.63;;;12.76;54.68
28008;BME280;15333;50.010;20.020;2023-03-13T14:18:52;97885.50;;;12.57;55.05
28008;BME280;15333;50.010;20.020;2023-03-13T14:22:01;97889.16;;;12.56;56.02
28008;BME280;15333;50.010;20.020;2023-03-13T14:25:03;97876.50;;;12.48;56.65
28008;BME280;15333;50.010;20.020;2023-03-13T14:28:04;97883.81;;;12.56;56.59
28008;BME280;15333;50.010;20.020;2023-03-13T14:31:05;97885.88;;;12.62;57.08
28008;BME280;15333;50.010;20.020;2023-03-13T14:34:08;97886.38;;;12.48;58.28
28008;BME280;15333;50.010;20.020;2023-03-13T14:37:33;97881.22;;;12.64;57.67
28008;BME280;15333;50.010;20.020;2023-03-13T14:40:37;97877.13;;;12.60;58.43
28008;BME280;15333;50.010;20.020;2023-03-13T14:43:41;97881.00;;;12.48;58.11
28008;BME280;15333;50.010;20.020;2023-03-13T14:46:43;97881.19;;;12.37;57.73
28008;BME280;15333;50.010;20.020;2023-03-13T14:49:46;97869.56;;;12.28;58.52
28008;BME280;15333;50.010;20.020;2023-03-13T14:52:50;97869.31;;;12.22;58.72
28008;BME280;15333;50.010;20.020;2023-03-13T14:56:09;97862.84;;;12.14;59.33
28008;BME280;15333;50.010;20.020;2023-03-13T14:59:18;97861.16;;;12.13;58.52
28008;BME280;15333;50.010;20.020;2023-03-13T15:02:26;97857.78;;;12.02;58.98
28008;BME280;15333;50.010;20.020;2023-03-13T15:05:30;97854.69;;;12.06;58.03
28008;BME280;15333;50.010;20.020;2023-03-13T15:08:33;97848.47;;;12.06;58.12
28008;BME280;15333;50.010;20.020;2023-03-13T15:11:38;97855.97;;;12.02;58.74
28008;BME280;15333;50.010;20.020;2023-03-13T15:14:46;97854.56;;;11.98;58.59
28008;BME280;15333;50.010;20.020;2023-03-13T15:17:47;97855.84;;;11.94;59.46
28008;BME280;15333;50.010;20.020;2023-03-13T15:24:14;97849.44;;;11.68;61.69
28008;BME280;15333;50.010;20.020;2023-03-13T15:27:20;97852.88;;;11.51;63.48
28008;BME280;15333;50.010;20.020;2023-03-13T15:30:22;97844.78;;;11.70;61.86
28008;BME280;15333;50.010;20.020;2023-03-13T15:33:26;97849.63;;;11.94;61.48
28008;BME280;15333;50.010;20.020;2023-03-13T15:36:29;97850.69;;;11.83;60.97
28008;BME280;15333;50.010;20.020;2023-03-13T15:39:30;97842.25;;;11.78;61.58
28008;BME280;15333;50.010;20.020;2023-03-13T15:42:32;97845.50;;;11.62;62.76
28008;BME280;15333;50.010;20.020;2023-03-13T15:45:34;97845.25;;;11.56;62.72
28008;BME280;15333;50.010;20.020;2023-03-13T15:48:36;97840.75;;;11.47;63.49
28008;BME280;15333;50.010;20.020;2023-03-13T15:51:37;97838.78;;;11.49;64.58
28008;BME280;15333;50.010;20.020;2023-03-13T15:54:39;97842.72;;;11.45;64.11
28008;BME280;15333;50.010;20.020;2023-03-13T15:57:43;97829.75;;;11.50;63.75
28008;BME280;15333;50.010;20.020;2023-03-13T16:00:45;97825.78;;;11.54;63.49
28008;BME280;15333;50.010;20.020;2023-03-13T16:03:46;97820.72;;;11.51;63.13
28008;BME280;15333;50.010;20.020;2023-03-13T16:06:47;97827.06;;;11.50;63.88
28008;BME280;15333;50.010;20.020;2023-03-13T16:09:48;97832.13;;;11.53;63.63
28008;BME280;15333;50.010;20.020;2023-03-13T16:12:49;97830.03;;;11.47;64.20
28008;BME280;15333;50.010;20.020;2023-03-13T16:15:49;97834.28;;;11.39;64.48
28008;BME280;15333;50.010;20.020;2023-03-13T16:18:51;97833.19;;;11.13;65.34
28008;BME280;15333;50.010;20.020;2023-03-13T16:21:52;97831.78;;;10.90;66.65
28008;BME280;15333;50.010;20.020;2023-03-13T16:24:53;97841.69;;;10.80;67.12
28008;BME280;15333;50.010;20.020;2023-03-13T16:27:54;97846.16;;;10.70;67.66
28008;BME280;15333;50.010;20.020;2023-03-13T16:30:56;97843.75;;;10.67;68.17
28008;BME280;15333;50.010;20.020;2023-03-13T16:33:57;97840.25;;;10.76;67.21
28008;BME280;15333;50.010;20.020;2023-03-13T16:36:59;97834.75;;;10.68;68.44
28008;BME280;15333;50.010;20.020;2023-03-13T16:40:00;97836.00;;;10.73;67.68
28008;BME280;15333;50.010;20.020;2023-03-13T16:43:02;97831.50;;;10.74;67.56
28008;BME280;15333;50.010;20.020;2023-03-13T16:46:09;97836.84;;;10.74;67.09
28008;BME280;15333;50.010;20.020;2023-03-13T16:49:14;97846.59;;;10.65;68.08
28008;BME280;15333;50.010;20.020;2023-03-13T16:52:16;97836.44;;;10.69;68.50
28008;BME280;15333;50.010;20.020;2023-03-13T16:55:18;97839.94;;;10.59;68.26
28008;BME280;15333;50.010;20.020;2023-03-13T16:58:19;97840.66;;;10.62;67.61
28008;BME280;15333;50.010;20.020;2023-03-13T17:01:21;97846.13;;;10.41;69.23
28008;BME280;15333;50.010;20.020;2023-03-13T17:04:25;97832.03;;;10.39;68.96
28008;BME280;15333;50.010;20.020;2023-03-13T17:07:26;97831.03;;;10.30;69.44
28008;BME280;15333;50.010;20.020;2023-03-13T17:10:30;97825.53;;;10.22;69.90
28008;BME280;15333;50.010;20.020;2023-03-13T17:13:32;97831.38;;;10.16;70.22
28008;BME280;15333;50.010;20.020;2023-03-13T17:16:40;97815.59;;;10.03;71.34
28008;BME280;15333;50.010;20.020;2023-03-13T17:19:42;97807.88;;;10.00;71.18
28008;BME280;15333;50.010;20.020;2023-03-13T17:22:43;97812.44;;;9.79;71.83
28008;BME280;15333;50.010;20.020;2023-03-13T17:25:45;97809.91;;;9.77;71.37
28008;BME280;15333;50.010;20.020;2023-03-13T17:28:47;97811.97;;;9.64;71.92
28008;BME280;15333;50.010;20.020;2023-03-13T17:31:49;97800.59;;;9.72;71.88
28008;BME280;15333;50.010;20.020;2023-03-13T17:34:51;97796.06;;;9.63;71.79